createdAt,value
2019-05-25T00:00:00.936Z,18.74
2019-05-25T00:01:01.370Z,18.71
2019-05-25T00:02:01.805Z,18.73
2019-05-25T00:03:02.241Z,18.74
2019-05-25T00:04:02.687Z,18.71
2019-05-25T00:05:03.113Z,18.60
2019-05-25T00:06:03.546Z,18.77
2019-05-25T00:07:03.988Z,18.59
2019-05-25T00:08:04.415Z,18.83
2019-05-25T00:09:04.853Z,18.74
2019-05-25T00:10:05.292Z,18.68
2019-05-25T00:11:05.725Z,18.77
2019-05-25T00:12:06.165Z,18.33
2019-05-25T00:13:06.596Z,18.47
2019-05-25T00:14:07.033Z,18.47
2019-05-25T00:15:07.470Z,18.52
2019-05-25T00:16:07.905Z,18.34
2019-05-25T00:17:08.339Z,18.23
2019-05-25T00:18:08.774Z,18.20
2019-05-25T00:19:09.227Z,18.34
2019-05-25T00:20:09.669Z,18.10
2019-05-25T00:21:13.205Z,18.11
2019-05-25T00:22:10.511Z,18.18
2019-05-25T00:23:10.955Z,18.10
2019-05-25T00:24:12.812Z,18.10
2019-05-25T00:25:11.822Z,18.22
2019-05-25T00:26:12.264Z,18.11
2019-05-25T00:27:12.710Z,18.08
2019-05-25T00:28:13.132Z,18.44
2019-05-25T00:29:13.566Z,18.26
2019-05-25T00:30:14.000Z,18.16
2019-05-25T00:31:14.468Z,18.13
2019-05-25T00:32:14.871Z,18.07
2019-05-25T00:33:15.329Z,18.07
2019-05-25T00:34:15.744Z,17.94
2019-05-25T00:35:16.179Z,17.74
2019-05-25T00:36:16.617Z,18.00
2019-05-25T00:37:17.076Z,17.82
2019-05-25T00:38:17.494Z,17.87
2019-05-25T00:39:17.921Z,17.68
2019-05-25T00:40:18.381Z,17.86
2019-05-25T00:41:18.813Z,17.67
2019-05-25T00:42:19.221Z,17.82
2019-05-25T00:43:19.672Z,17.74
2019-05-25T00:44:20.099Z,17.67
2019-05-25T00:45:20.533Z,17.60
2019-05-25T00:46:20.967Z,17.70
2019-05-25T00:47:21.403Z,17.63
2019-05-25T00:48:21.841Z,17.74
2019-05-25T00:49:22.272Z,17.57
2019-05-25T00:50:22.709Z,17.57
2019-05-25T00:51:23.149Z,17.63
2019-05-25T00:52:23.574Z,17.48
2019-05-25T00:53:24.025Z,17.54
2019-05-25T00:54:28.109Z,17.52
2019-05-25T00:55:24.882Z,17.54
2019-05-25T00:56:25.317Z,17.68
2019-05-25T00:57:25.751Z,17.48
2019-05-25T00:58:26.197Z,17.49
2019-05-25T00:59:26.627Z,17.36
2019-05-25T01:00:27.057Z,17.36
2019-05-25T01:01:27.501Z,17.60
2019-05-25T01:02:27.933Z,17.60
2019-05-25T01:03:28.360Z,17.33
2019-05-25T01:04:28.791Z,17.23
2019-05-25T01:05:29.237Z,17.38
2019-05-25T01:06:29.669Z,17.27
2019-05-25T01:07:30.100Z,17.16
2019-05-25T01:08:30.537Z,17.23
2019-05-25T01:09:30.965Z,17.29
2019-05-25T01:10:31.403Z,17.23
2019-05-25T01:11:31.836Z,17.31
2019-05-25T01:12:32.271Z,17.09
2019-05-25T01:13:32.731Z,17.06
2019-05-25T01:14:33.153Z,16.91
2019-05-25T01:15:33.573Z,17.02
2019-05-25T01:16:34.010Z,17.16
2019-05-25T01:17:34.447Z,17.02
2019-05-25T01:18:34.872Z,16.81
2019-05-25T01:21:11.051Z,16.76
2019-05-25T01:22:11.486Z,17.02
2019-05-25T01:24:06.514Z,16.90
2019-05-25T01:25:06.938Z,16.89
2019-05-25T01:27:14.554Z,16.66
2019-05-25T01:28:14.984Z,16.56
2019-05-25T01:30:09.541Z,16.83
2019-05-25T01:31:09.968Z,16.57
2019-05-25T01:33:04.536Z,16.53
2019-05-25T01:34:04.962Z,16.64
2019-05-25T01:35:59.540Z,16.68
2019-05-25T01:36:59.961Z,16.66
2019-05-25T01:38:55.514Z,16.47
2019-05-25T01:39:55.938Z,16.90
2019-05-25T01:41:50.521Z,16.65
2019-05-25T01:42:50.960Z,16.64
2019-05-25T01:44:46.524Z,16.61
2019-05-25T01:45:46.930Z,16.53
2019-05-25T01:47:41.506Z,16.31
2019-05-25T01:48:41.934Z,16.31
2019-05-25T01:50:36.536Z,16.54
2019-05-25T01:51:36.952Z,16.43
2019-05-25T01:53:31.523Z,16.46
2019-05-25T01:54:31.960Z,16.43
2019-05-25T01:56:26.771Z,16.39
2019-05-25T01:57:27.195Z,16.49
2019-05-25T01:59:21.759Z,16.17
2019-05-25T02:00:22.196Z,16.10
2019-05-25T02:02:16.775Z,15.97
2019-05-25T02:03:17.199Z,15.97
2019-05-25T02:05:11.764Z,15.90
2019-05-25T02:06:12.199Z,15.94
2019-05-25T02:08:06.772Z,15.83
2019-05-25T02:09:07.201Z,15.91
2019-05-25T02:11:02.754Z,15.55
2019-05-25T02:12:03.189Z,15.42
2019-05-25T02:13:57.733Z,15.51
2019-05-25T02:14:58.171Z,15.59
2019-05-25T02:16:52.745Z,15.54
2019-05-25T02:17:53.168Z,15.65
2019-05-25T02:19:48.007Z,15.75
2019-05-25T02:20:48.161Z,15.88
2019-05-25T02:22:43.721Z,15.59
2019-05-25T02:23:44.137Z,15.91
2019-05-25T02:25:39.693Z,15.65
2019-05-25T02:26:40.139Z,15.55
2019-05-25T02:28:34.698Z,15.51
2019-05-25T02:29:35.115Z,15.49
2019-05-25T02:31:29.695Z,15.35
2019-05-25T02:32:30.125Z,15.70
2019-05-25T02:34:24.677Z,15.42
2019-05-25T02:35:25.323Z,15.24
2019-05-25T02:37:19.679Z,15.25
2019-05-25T02:38:20.106Z,15.24
2019-05-25T02:40:14.689Z,14.89
2019-05-25T02:41:15.107Z,15.03
2019-05-25T02:43:09.672Z,15.22
2019-05-25T02:44:10.093Z,15.02
2019-05-25T02:46:05.658Z,15.11
2019-05-25T02:47:06.065Z,15.27
2019-05-25T02:49:00.642Z,15.19
2019-05-25T02:50:01.064Z,15.24
2019-05-25T02:51:55.635Z,15.19
2019-05-25T02:52:56.064Z,15.00
2019-05-25T02:56:24.779Z,14.96
2019-05-25T02:57:25.202Z,15.06
2019-05-25T02:59:19.775Z,15.00
2019-05-25T03:00:20.189Z,15.10
2019-05-25T03:02:14.779Z,14.79
2019-05-25T03:03:15.196Z,14.69
2019-05-25T03:05:09.741Z,14.53
2019-05-25T03:06:10.283Z,14.59
2019-05-25T03:08:04.750Z,15.03
2019-05-25T03:09:05.164Z,15.11
2019-05-25T03:10:59.719Z,14.82
2019-05-25T03:12:00.150Z,14.79
2019-05-25T03:13:55.708Z,14.79
2019-05-25T03:14:56.131Z,15.04
2019-05-25T03:16:50.702Z,14.68
2019-05-25T03:17:51.128Z,14.30
2019-05-25T03:19:45.688Z,14.37
2019-05-25T03:20:46.130Z,14.50
2019-05-25T03:22:40.692Z,14.89
2019-05-25T03:23:41.115Z,15.02
2019-05-25T03:25:48.600Z,15.17
2019-05-25T03:26:36.103Z,15.03
2019-05-25T03:28:30.663Z,14.84
2019-05-25T03:29:31.087Z,14.81
2019-05-25T03:31:25.664Z,15.03
2019-05-25T03:32:26.090Z,14.78
2019-05-25T03:34:22.076Z,14.89
2019-05-25T03:35:22.494Z,14.66
2019-05-25T03:37:17.355Z,14.35
2019-05-25T03:39:50.568Z,15.24
2019-05-25T03:40:50.999Z,15.00
2019-05-25T03:42:45.561Z,15.03
2019-05-25T03:43:45.979Z,14.77
2019-05-25T03:45:41.562Z,14.53
2019-05-25T03:46:41.993Z,14.17
2019-05-25T03:48:37.536Z,14.15
2019-05-25T03:49:37.966Z,14.69
2019-05-25T03:51:32.525Z,14.54
2019-05-25T03:52:32.956Z,14.43
2019-05-25T03:54:27.527Z,14.68
2019-05-25T03:55:27.943Z,14.55
2019-05-25T03:57:22.523Z,14.26
2019-05-25T03:58:22.944Z,14.36
2019-05-25T04:00:17.511Z,14.40
2019-05-25T04:01:17.942Z,14.51
2019-05-25T04:03:13.488Z,14.47
2019-05-25T04:04:13.909Z,14.48
2019-05-25T04:06:08.472Z,14.60
2019-05-25T04:07:08.905Z,14.48
2019-05-25T04:09:04.460Z,14.36
2019-05-25T04:10:04.897Z,14.32
2019-05-25T04:11:59.436Z,14.41
2019-05-25T04:12:59.869Z,14.29
2019-05-25T04:14:55.432Z,14.44
2019-05-25T04:15:55.844Z,14.30
2019-05-25T04:17:51.401Z,14.12
2019-05-25T04:18:51.822Z,14.26
2019-05-25T04:20:46.384Z,14.26
2019-05-25T04:21:46.815Z,14.23
2019-05-25T04:23:41.376Z,14.12
2019-05-25T04:24:41.806Z,14.40
2019-05-25T04:26:37.353Z,14.37
2019-05-25T04:27:37.800Z,14.22
2019-05-25T04:29:33.325Z,14.17
2019-05-25T04:30:33.770Z,14.35
2019-05-25T04:32:28.304Z,14.70
2019-05-25T04:33:28.737Z,14.65
2019-05-25T04:35:23.303Z,14.62
2019-05-25T04:36:23.727Z,14.44
2019-05-25T04:38:18.290Z,14.72
2019-05-25T04:39:18.718Z,14.79
2019-05-25T04:40:19.142Z,14.79
2019-05-25T04:41:19.580Z,14.73
2019-05-25T04:42:20.009Z,14.70
2019-05-25T04:43:20.438Z,14.81
2019-05-25T04:44:20.869Z,14.54
2019-05-25T04:45:21.380Z,14.82
2019-05-25T04:46:21.784Z,14.73
2019-05-25T04:47:27.061Z,14.79
2019-05-25T04:48:22.591Z,14.79
2019-05-25T04:49:23.025Z,14.50
2019-05-25T04:50:23.461Z,14.30
2019-05-25T04:51:23.888Z,14.36
2019-05-25T04:52:24.325Z,14.50
2019-05-25T04:53:24.766Z,14.55
2019-05-25T04:54:25.194Z,14.47
2019-05-25T04:55:25.614Z,14.72
2019-05-25T04:56:39.108Z,14.69
2019-05-25T04:57:26.485Z,14.77
2019-05-25T04:58:26.908Z,14.97
2019-05-25T04:59:27.342Z,14.81
2019-05-25T05:00:27.775Z,15.24
2019-05-25T05:01:28.210Z,14.92
2019-05-25T05:02:28.657Z,14.99
2019-05-25T05:03:29.079Z,14.97
2019-05-25T05:04:29.498Z,14.97
2019-05-25T05:05:29.962Z,15.07
2019-05-25T05:07:26.048Z,15.33
2019-05-25T05:08:26.474Z,15.19
2019-05-25T05:10:21.045Z,15.22
2019-05-25T05:11:21.463Z,15.28
2019-05-25T05:13:17.039Z,15.37
2019-05-25T05:14:17.484Z,15.00
2019-05-25T05:16:14.582Z,14.85
2019-05-25T05:17:15.017Z,14.97
2019-05-25T05:19:09.580Z,15.03
2019-05-25T05:20:10.002Z,15.03
2019-05-25T05:22:05.904Z,15.10
2019-05-25T05:23:05.028Z,15.11
2019-05-25T05:24:59.568Z,15.03
2019-05-25T05:25:59.976Z,14.79
2019-05-25T05:27:56.463Z,14.65
2019-05-25T05:28:56.891Z,14.89
2019-05-25T05:30:54.724Z,15.11
2019-05-25T05:31:55.156Z,14.96
2019-05-25T05:33:49.728Z,15.33
2019-05-25T05:34:50.151Z,15.10
2019-05-25T05:36:44.710Z,14.73
2019-05-25T05:37:45.145Z,15.27
2019-05-25T05:39:39.715Z,14.94
2019-05-25T05:40:40.142Z,14.89
2019-05-25T05:42:34.694Z,14.96
2019-05-25T05:43:35.131Z,14.89
2019-05-25T05:45:29.689Z,14.96
2019-05-25T05:46:30.108Z,14.59
2019-05-25T05:48:24.676Z,14.81
2019-05-25T05:49:25.105Z,14.77
2019-05-25T05:51:19.689Z,14.81
2019-05-25T05:52:20.098Z,15.09
2019-05-25T05:54:14.671Z,14.88
2019-05-25T05:55:17.338Z,15.00
2019-05-25T05:57:12.677Z,14.73
2019-05-25T05:58:10.093Z,14.54
2019-05-25T06:00:04.662Z,14.68
2019-05-25T06:01:05.089Z,14.69
2019-05-25T06:02:59.735Z,14.65
2019-05-25T06:04:00.145Z,14.62
2019-05-25T06:05:54.708Z,14.84
2019-05-25T06:06:55.127Z,14.91
2019-05-25T06:08:50.689Z,15.15
2019-05-25T06:09:51.116Z,15.18
2019-05-25T06:11:45.696Z,15.09
2019-05-25T06:12:46.119Z,15.55
2019-05-25T06:14:40.692Z,16.39
2019-05-25T06:15:41.124Z,16.54
2019-05-25T06:17:35.674Z,16.87
2019-05-25T06:18:36.118Z,16.61
2019-05-25T06:20:30.734Z,15.61
2019-05-25T06:21:31.158Z,15.49
2019-05-25T06:23:26.928Z,15.92
2019-05-25T06:24:26.161Z,16.09
2019-05-25T06:26:20.784Z,15.91
2019-05-25T06:27:27.330Z,15.73
2019-05-25T06:29:15.818Z,15.73
2019-05-25T06:30:16.200Z,15.80
2019-05-25T06:32:10.797Z,16.53
2019-05-25T06:33:11.223Z,16.47
2019-05-25T06:34:11.648Z,16.83
2019-05-25T06:35:12.087Z,17.59
2019-05-25T06:36:12.523Z,18.52
2019-05-25T06:37:12.955Z,19.02
2019-05-25T06:38:13.409Z,18.95
2019-05-25T06:39:13.839Z,19.07
2019-05-25T06:40:14.279Z,19.21
2019-05-25T06:41:14.722Z,19.52
2019-05-25T06:42:15.163Z,19.64
2019-05-25T06:43:15.611Z,19.69
2019-05-25T06:44:16.046Z,19.62
2019-05-25T06:45:16.497Z,19.11
2019-05-25T06:46:16.929Z,19.64
2019-05-25T06:47:17.376Z,18.43
2019-05-25T06:48:17.814Z,17.72
2019-05-25T06:49:18.255Z,17.65
2019-05-25T06:50:18.700Z,16.51
2019-05-25T06:51:19.145Z,16.71
2019-05-25T06:52:19.584Z,16.89
2019-05-25T06:53:20.030Z,16.61
2019-05-25T06:54:20.476Z,17.33
2019-05-25T06:55:20.909Z,17.95
2019-05-25T06:56:21.352Z,17.83
2019-05-25T06:57:21.793Z,17.89
2019-05-25T06:58:22.244Z,18.34
2019-05-25T06:59:22.678Z,17.92
2019-05-25T07:00:23.119Z,17.63
2019-05-25T07:01:23.563Z,16.91
2019-05-25T07:02:24.012Z,17.26
2019-05-25T07:03:24.442Z,17.24
2019-05-25T07:04:24.885Z,17.36
2019-05-25T07:05:25.335Z,17.63
2019-05-25T07:06:25.777Z,17.46
2019-05-25T07:07:26.295Z,17.24
2019-05-25T07:08:26.662Z,16.76
2019-05-25T07:09:27.088Z,16.75
2019-05-25T07:10:27.536Z,16.76
2019-05-25T07:11:27.979Z,16.32
2019-05-25T07:12:28.407Z,16.36
2019-05-25T07:13:28.853Z,16.69
2019-05-25T07:14:29.293Z,17.16
2019-05-25T07:15:29.731Z,17.08
2019-05-25T07:16:30.166Z,17.19
2019-05-25T07:17:30.659Z,16.96
2019-05-25T07:18:31.057Z,17.06
2019-05-25T07:19:31.570Z,16.90
2019-05-25T07:20:31.934Z,17.14
2019-05-25T07:21:32.425Z,17.23
2019-05-25T07:22:32.815Z,17.05
2019-05-25T07:23:33.246Z,17.20
2019-05-25T07:24:33.720Z,16.66
2019-05-25T07:25:34.143Z,16.23
2019-05-25T07:26:34.580Z,16.39
2019-05-25T07:27:35.021Z,16.47
2019-05-25T07:28:35.470Z,16.47
2019-05-25T07:29:35.880Z,16.54
2019-05-25T07:30:36.430Z,16.64
2019-05-25T07:31:36.758Z,16.41
2019-05-25T07:32:37.201Z,17.08
2019-05-25T07:33:37.705Z,17.30
2019-05-25T07:34:38.078Z,17.06
2019-05-25T07:35:38.564Z,17.09
2019-05-25T07:36:38.956Z,17.12
2019-05-25T07:37:39.396Z,17.04
2019-05-25T07:38:39.830Z,16.78
2019-05-25T07:39:40.274Z,16.90
2019-05-25T07:40:40.722Z,16.35
2019-05-25T07:41:41.201Z,16.49
2019-05-25T07:42:41.647Z,16.58
2019-05-25T07:43:42.032Z,16.51
2019-05-25T07:44:42.461Z,16.76
2019-05-25T07:45:42.910Z,16.47
2019-05-25T07:46:43.340Z,16.47
2019-05-25T07:47:43.781Z,16.46
2019-05-25T07:48:44.216Z,16.31
2019-05-25T07:49:44.655Z,16.23
2019-05-25T07:50:45.085Z,16.47
2019-05-25T07:51:45.532Z,16.38
2019-05-25T07:52:45.968Z,16.26
2019-05-25T07:53:46.401Z,16.24
2019-05-25T07:54:46.913Z,16.38
2019-05-25T07:55:47.340Z,16.46
2019-05-25T07:56:47.715Z,16.69
2019-05-25T07:57:48.154Z,16.89
2019-05-25T07:58:48.631Z,16.81
2019-05-25T07:59:49.033Z,16.89
2019-05-25T08:00:49.494Z,17.05
2019-05-25T08:01:49.926Z,17.14
2019-05-25T08:02:50.346Z,16.91
2019-05-25T08:03:50.858Z,17.14
2019-05-25T08:04:51.271Z,17.09
2019-05-25T08:05:51.659Z,16.93
2019-05-25T08:06:52.121Z,17.05
2019-05-25T08:07:52.528Z,17.39
2019-05-25T08:08:52.965Z,17.24
2019-05-25T08:09:53.399Z,17.39
2019-05-25T08:10:53.835Z,16.66
2019-05-25T08:11:54.273Z,16.42
2019-05-25T08:12:54.713Z,16.20
2019-05-25T08:13:55.153Z,16.12
2019-05-25T08:14:55.585Z,16.12
2019-05-25T08:15:56.029Z,16.01
2019-05-25T08:16:56.459Z,15.58
2019-05-25T08:17:56.946Z,15.91
2019-05-25T08:18:57.339Z,16.01
2019-05-25T08:19:57.769Z,16.09
2019-05-25T08:20:58.200Z,16.02
2019-05-25T08:21:58.693Z,15.80
2019-05-25T08:22:59.087Z,15.68
2019-05-25T08:23:59.511Z,15.73
2019-05-25T08:24:59.950Z,15.64
2019-05-25T08:26:00.427Z,15.88
2019-05-25T08:27:00.834Z,16.13
2019-05-25T08:28:01.407Z,16.36
2019-05-25T08:29:01.700Z,16.49
2019-05-25T08:30:02.154Z,16.36
2019-05-25T08:31:02.612Z,16.56
2019-05-25T08:32:03.029Z,16.33
2019-05-25T08:33:03.443Z,16.35
2019-05-25T08:34:03.880Z,16.26
2019-05-25T08:35:04.316Z,15.97
2019-05-25T08:36:04.795Z,15.90
2019-05-25T08:37:05.191Z,15.94
2019-05-25T08:38:05.631Z,16.15
2019-05-25T08:39:06.056Z,16.15
2019-05-25T08:40:06.493Z,16.01
2019-05-25T08:41:06.931Z,15.94
2019-05-25T08:42:07.374Z,16.24
2019-05-25T08:43:07.807Z,16.26
2019-05-25T08:44:08.234Z,16.46
2019-05-25T08:45:08.763Z,16.46
2019-05-25T08:46:09.164Z,16.51
2019-05-25T08:47:09.594Z,16.47
2019-05-25T08:48:10.037Z,16.47
2019-05-25T08:49:10.426Z,16.38
2019-05-25T08:50:10.854Z,16.36
2019-05-25T08:51:11.291Z,16.47
2019-05-25T08:52:11.729Z,16.65
2019-05-25T08:53:12.195Z,16.32
2019-05-25T08:54:12.648Z,16.09
2019-05-25T08:55:13.042Z,15.91
2019-05-25T08:56:13.473Z,15.92
2019-05-25T08:57:18.333Z,15.94
2019-05-25T08:58:14.337Z,15.97
2019-05-25T08:59:14.836Z,16.16
2019-05-25T09:00:15.216Z,16.21
2019-05-25T09:01:15.699Z,16.42
2019-05-25T09:02:16.080Z,16.49
2019-05-25T09:03:16.571Z,16.31
2019-05-25T09:04:16.976Z,16.10
2019-05-25T09:05:17.426Z,16.13
2019-05-25T09:06:17.819Z,16.02
2019-05-25T09:07:18.255Z,16.24
2019-05-25T09:08:18.725Z,16.00
2019-05-25T09:09:19.126Z,15.97
2019-05-25T09:10:19.562Z,15.91
2019-05-25T09:11:20.003Z,15.70
2019-05-25T09:12:20.430Z,15.77
2019-05-25T09:13:20.871Z,15.75
2019-05-25T09:14:21.304Z,15.84
2019-05-25T09:15:21.738Z,15.90
2019-05-25T09:16:22.171Z,15.92
2019-05-25T09:17:22.624Z,16.21
2019-05-25T09:18:23.044Z,15.92
2019-05-25T09:19:23.517Z,15.90
2019-05-25T09:20:23.929Z,15.94
2019-05-25T09:21:24.354Z,15.97
2019-05-25T09:22:24.785Z,15.98
2019-05-25T09:23:25.223Z,16.17
2019-05-25T09:24:25.655Z,16.16
2019-05-25T09:25:26.096Z,16.17
2019-05-25T09:26:26.522Z,15.98
2019-05-25T09:27:26.968Z,16.08
2019-05-25T09:28:27.408Z,16.08
2019-05-25T09:29:27.829Z,16.21
2019-05-25T09:30:28.292Z,16.42
2019-05-25T09:31:28.703Z,16.87
2019-05-25T09:32:29.140Z,17.15
2019-05-25T09:33:29.569Z,17.34
2019-05-25T09:34:30.015Z,17.36
2019-05-25T09:35:30.471Z,16.96
2019-05-25T09:36:30.882Z,17.02
2019-05-25T09:37:31.314Z,16.90
2019-05-25T09:38:31.760Z,16.93
2019-05-25T09:39:32.208Z,16.94
2019-05-25T09:40:32.626Z,16.87
2019-05-25T09:41:33.063Z,16.51
2019-05-25T09:42:33.505Z,16.47
2019-05-25T09:43:34.084Z,16.65
2019-05-25T09:44:34.372Z,16.64
2019-05-25T09:45:34.819Z,16.86
2019-05-25T09:46:35.245Z,16.69
2019-05-25T09:47:35.690Z,16.47
2019-05-25T09:48:38.313Z,16.51
2019-05-25T09:49:36.561Z,16.46
2019-05-25T09:50:36.994Z,16.02
2019-05-25T09:51:37.439Z,15.97
2019-05-25T09:52:37.969Z,16.15
2019-05-25T09:53:38.326Z,15.95
2019-05-25T09:54:38.743Z,15.98
2019-05-25T09:55:39.173Z,16.05
2019-05-25T09:56:39.608Z,16.08
2019-05-25T09:57:41.733Z,16.16
2019-05-25T09:58:40.493Z,16.01
2019-05-25T09:59:40.914Z,16.29
2019-05-25T10:00:41.380Z,15.94
2019-05-25T10:01:41.790Z,16.00
2019-05-25T10:02:42.616Z,15.92
2019-05-25T10:03:43.620Z,16.04
2019-05-25T10:04:43.102Z,16.02
2019-05-25T10:05:43.596Z,16.39
2019-05-25T10:06:43.975Z,16.29
2019-05-25T10:07:44.401Z,16.33
2019-05-25T10:08:44.831Z,16.31
2019-05-25T10:09:45.290Z,16.36
2019-05-25T10:10:45.709Z,16.41
2019-05-25T10:11:46.141Z,16.61
2019-05-25T10:12:46.578Z,16.87
2019-05-25T10:13:47.010Z,16.84
2019-05-25T10:14:47.551Z,17.05
2019-05-25T10:15:47.888Z,17.27
2019-05-25T10:16:48.321Z,17.16
2019-05-25T10:17:48.763Z,17.22
2019-05-25T10:18:49.193Z,17.19
2019-05-25T10:19:49.642Z,16.96
2019-05-25T10:20:50.073Z,16.90
2019-05-25T10:21:50.513Z,16.66
2019-05-25T10:22:50.963Z,16.96
2019-05-25T10:23:51.399Z,17.51
2019-05-25T10:24:51.825Z,17.85
2019-05-25T10:25:52.251Z,18.33
2019-05-25T10:26:52.709Z,18.43
2019-05-25T10:27:53.145Z,18.95
2019-05-25T10:28:53.576Z,19.30
2019-05-25T10:29:54.016Z,19.30
2019-05-25T10:30:54.458Z,19.31
2019-05-25T10:31:54.894Z,19.24
2019-05-25T10:32:55.333Z,19.16
2019-05-25T10:33:55.775Z,18.47
2019-05-25T10:34:56.209Z,18.29
2019-05-25T10:35:56.682Z,18.44
2019-05-25T10:36:57.091Z,17.95
2019-05-25T10:37:57.534Z,17.34
2019-05-25T10:38:57.972Z,17.64
2019-05-25T10:39:58.411Z,17.86
2019-05-25T10:40:58.869Z,18.31
2019-05-25T10:41:59.293Z,18.56
2019-05-25T10:42:59.738Z,18.70
2019-05-25T10:44:00.175Z,18.66
2019-05-25T10:45:00.620Z,18.59
2019-05-25T10:46:01.057Z,18.23
2019-05-25T10:47:01.496Z,17.92
2019-05-25T10:48:01.943Z,17.64
2019-05-25T10:49:02.370Z,17.15
2019-05-25T10:50:02.864Z,17.41
2019-05-25T10:51:03.255Z,17.80
2019-05-25T10:52:03.695Z,17.80
2019-05-25T10:53:04.129Z,17.82
2019-05-25T10:54:04.588Z,18.10
2019-05-25T10:55:05.018Z,18.01
2019-05-25T10:56:05.478Z,18.08
2019-05-25T10:57:05.890Z,17.90
2019-05-25T10:58:06.356Z,18.00
2019-05-25T10:59:06.776Z,18.28
2019-05-25T11:00:07.251Z,18.28
2019-05-25T11:01:07.652Z,18.01
2019-05-25T11:02:08.096Z,17.65
2019-05-25T11:03:08.528Z,17.87
2019-05-25T11:04:08.967Z,18.11
2019-05-25T11:05:09.421Z,18.34
2019-05-25T11:06:09.853Z,18.22
2019-05-25T11:07:10.288Z,18.20
2019-05-25T11:08:10.752Z,18.31
2019-05-25T11:09:11.173Z,18.56
2019-05-25T11:10:11.661Z,17.94
2019-05-25T11:11:12.051Z,18.40
2019-05-25T11:12:12.575Z,18.26
2019-05-25T11:13:12.930Z,18.08
2019-05-25T11:14:13.395Z,18.22
2019-05-25T11:15:13.815Z,17.98
2019-05-25T11:16:14.253Z,17.82
2019-05-25T11:17:14.715Z,17.79
2019-05-25T11:18:15.134Z,18.25
2019-05-25T11:19:15.596Z,18.80
2019-05-25T11:20:16.013Z,18.83
2019-05-25T11:21:16.497Z,18.86
2019-05-25T11:22:16.904Z,18.73
2019-05-25T11:23:17.333Z,18.44
2019-05-25T11:24:17.778Z,18.11
2019-05-25T11:25:18.219Z,18.22
2019-05-25T11:26:18.650Z,18.56
2019-05-25T11:27:19.107Z,19.08
2019-05-25T11:28:19.552Z,18.58
2019-05-25T11:29:19.995Z,18.84
2019-05-25T11:30:20.437Z,19.12
2019-05-25T11:31:20.870Z,18.63
2019-05-25T11:32:21.370Z,19.30
2019-05-25T11:33:21.752Z,19.49
2019-05-25T11:34:22.194Z,19.66
2019-05-25T11:35:22.638Z,19.55
2019-05-25T11:36:23.088Z,19.70
2019-05-25T11:37:23.518Z,19.86
2019-05-25T11:38:23.958Z,19.31
2019-05-25T11:39:24.413Z,19.19
2019-05-25T11:40:24.843Z,19.70
2019-05-25T11:41:25.297Z,19.81
2019-05-25T11:42:25.771Z,19.27
2019-05-25T11:43:26.172Z,18.96
2019-05-25T11:44:26.608Z,18.95
2019-05-25T11:45:27.053Z,19.48
2019-05-25T11:46:27.493Z,19.82
2019-05-25T11:47:27.943Z,19.66
2019-05-25T11:48:28.412Z,19.99
2019-05-25T11:49:28.824Z,20.29
2019-05-25T11:50:29.312Z,19.92
2019-05-25T11:51:29.708Z,20.09
2019-05-25T11:52:30.157Z,19.33
2019-05-25T11:53:30.584Z,19.41
2019-05-25T11:54:31.032Z,18.55
2019-05-25T11:55:31.510Z,18.93
2019-05-25T11:56:31.913Z,19.07
2019-05-25T11:57:32.352Z,19.29
2019-05-25T11:58:46.582Z,19.29
2019-05-25T11:59:33.236Z,19.70
2019-05-25T12:00:33.676Z,19.62
2019-05-25T12:01:34.125Z,19.30
2019-05-25T12:02:34.572Z,18.74
2019-05-25T12:03:35.040Z,18.53
2019-05-25T12:04:35.507Z,18.07
2019-05-25T12:05:35.887Z,18.13
2019-05-25T12:06:36.323Z,18.34
2019-05-25T12:07:36.768Z,18.56
2019-05-25T12:08:37.213Z,18.56
2019-05-25T12:09:37.655Z,18.73
2019-05-25T12:10:38.091Z,18.07
2019-05-25T12:11:38.554Z,18.01
2019-05-25T12:12:38.983Z,17.89
2019-05-25T12:13:39.412Z,17.97
2019-05-25T12:14:39.851Z,18.19
2019-05-25T12:15:40.290Z,18.23
2019-05-25T12:16:40.741Z,18.07
2019-05-25T12:17:41.173Z,17.97
2019-05-25T12:18:41.617Z,17.92
2019-05-25T12:19:42.061Z,18.19
2019-05-25T12:20:42.496Z,17.89
2019-05-25T12:21:42.941Z,17.94
2019-05-25T12:22:43.382Z,18.49
2019-05-25T12:23:43.819Z,18.50
2019-05-25T12:24:44.254Z,18.81
2019-05-25T12:25:44.696Z,18.33
2019-05-25T12:26:45.228Z,18.25
2019-05-25T12:27:49.102Z,18.13
2019-05-25T12:28:46.011Z,18.00
2019-05-25T12:29:46.512Z,18.01
2019-05-25T12:30:46.903Z,17.95
2019-05-25T12:31:47.382Z,17.82
2019-05-25T12:32:47.780Z,18.00
2019-05-25T12:33:48.208Z,18.16
2019-05-25T12:34:48.661Z,18.34
2019-05-25T12:35:49.089Z,18.58
2019-05-25T12:36:49.586Z,18.25
2019-05-25T12:37:50.017Z,18.44
2019-05-25T12:38:50.464Z,18.70
2019-05-25T12:39:50.855Z,18.71
2019-05-25T12:40:53.849Z,19.14
2019-05-25T12:41:51.734Z,19.33
2019-05-25T12:42:52.181Z,19.04
2019-05-25T12:43:52.624Z,19.09
2019-05-25T12:44:53.090Z,18.49
2019-05-25T12:45:53.525Z,18.11
2019-05-25T12:46:53.957Z,18.19
2019-05-25T12:47:54.379Z,18.01
2019-05-25T12:48:54.805Z,17.70
2019-05-25T12:49:55.256Z,17.97
2019-05-25T12:50:55.685Z,17.82
2019-05-25T12:51:56.130Z,17.82
2019-05-25T12:52:56.567Z,18.10
2019-05-25T12:53:57.064Z,18.10
2019-05-25T12:54:57.483Z,17.95
2019-05-25T12:55:57.883Z,18.04
2019-05-25T12:56:58.320Z,18.05
2019-05-25T12:57:58.817Z,18.10
2019-05-25T12:58:59.241Z,18.04
2019-05-25T13:00:14.176Z,18.04
2019-05-25T13:01:00.083Z,18.15
2019-05-25T13:02:00.521Z,18.23
2019-05-25T13:03:00.971Z,18.23
2019-05-25T13:04:01.441Z,18.22
2019-05-25T13:05:01.836Z,18.13
2019-05-25T13:06:02.276Z,18.03
2019-05-25T13:07:02.743Z,18.22
2019-05-25T13:08:03.153Z,18.26
2019-05-25T13:09:03.611Z,18.22
2019-05-25T13:10:04.039Z,18.29
2019-05-25T13:11:04.474Z,18.47
2019-05-25T13:12:04.913Z,17.89
2019-05-25T13:13:05.371Z,18.41
2019-05-25T13:14:14.106Z,18.92
2019-05-25T13:15:06.230Z,19.09
2019-05-25T13:16:06.797Z,19.16
2019-05-25T13:17:07.127Z,18.70
2019-05-25T13:18:07.551Z,18.53
2019-05-25T13:19:08.046Z,18.55
2019-05-25T13:20:08.441Z,18.47
2019-05-25T13:21:08.873Z,18.31
2019-05-25T13:22:09.310Z,18.45
2019-05-25T13:23:09.754Z,18.08
2019-05-25T13:24:10.193Z,17.97
2019-05-25T13:25:10.728Z,18.23
2019-05-25T13:26:11.123Z,18.05
2019-05-25T13:27:11.522Z,18.13
2019-05-25T13:28:11.951Z,18.41
2019-05-25T13:29:12.393Z,18.28
2019-05-25T13:30:12.826Z,18.13
2019-05-25T13:31:13.324Z,17.90
2019-05-25T13:32:13.714Z,17.83
2019-05-25T13:33:14.151Z,17.94
2019-05-25T13:34:14.632Z,18.07
2019-05-25T13:35:15.035Z,17.95
2019-05-25T13:36:15.473Z,18.05
2019-05-25T13:37:17.893Z,18.05
2019-05-25T13:38:16.346Z,18.01
2019-05-25T13:39:16.784Z,18.10
2019-05-25T13:40:17.460Z,18.01
2019-05-25T13:41:17.662Z,18.13
2019-05-25T13:42:18.139Z,18.28
2019-05-25T13:43:18.583Z,17.90
2019-05-25T13:44:18.995Z,17.78
2019-05-25T13:45:19.420Z,18.00
2019-05-25T13:46:19.858Z,17.82
2019-05-25T13:47:20.306Z,18.00
2019-05-25T13:48:20.734Z,17.86
2019-05-25T13:49:21.183Z,17.79
2019-05-25T13:50:21.660Z,17.89
2019-05-25T13:51:22.063Z,17.94
2019-05-25T13:52:22.494Z,18.00
2019-05-25T13:53:22.929Z,17.92
2019-05-25T13:54:23.407Z,17.74
2019-05-25T13:55:23.818Z,17.72
2019-05-25T13:56:24.243Z,17.79
2019-05-25T13:57:24.685Z,17.76
2019-05-25T13:58:25.125Z,17.68
2019-05-25T13:59:25.567Z,17.39
2019-05-25T14:00:26.005Z,17.44
2019-05-25T14:01:28.719Z,17.56
2019-05-25T14:02:26.877Z,17.56
2019-05-25T14:03:27.332Z,17.57
2019-05-25T14:04:27.760Z,17.39
2019-05-25T14:05:28.196Z,17.65
2019-05-25T14:06:28.641Z,17.83
2019-05-25T14:07:29.074Z,17.65
2019-05-25T14:08:29.566Z,17.67
2019-05-25T14:09:29.954Z,17.76
2019-05-25T14:10:30.389Z,18.01
2019-05-25T14:11:30.820Z,18.01
2019-05-25T14:12:31.326Z,17.80
2019-05-25T14:13:31.707Z,17.57
2019-05-25T14:14:32.140Z,17.92
2019-05-25T14:15:32.591Z,18.08
2019-05-25T14:16:33.023Z,18.00
2019-05-25T14:17:33.457Z,17.94
2019-05-25T14:18:33.896Z,18.00
2019-05-25T14:19:34.329Z,18.15
2019-05-25T14:20:34.768Z,18.37
2019-05-25T14:21:35.225Z,17.92
2019-05-25T14:22:35.699Z,18.10
2019-05-25T14:23:36.181Z,18.00
2019-05-25T14:24:36.526Z,18.18
2019-05-25T14:25:36.961Z,18.04
2019-05-25T14:26:37.410Z,17.86
2019-05-25T14:27:37.840Z,18.13
2019-05-25T14:28:38.286Z,18.07
2019-05-25T14:29:38.724Z,18.19